Terminal Aerodrome Forecast
Issued by NWS

Home | Current Version | Previous Version | Text Only | Print | Product List | Glossary On
Versions: 1 2 3 4 5 6 7 8 9 10 11 12 13
000
FTPA31 PHFO 300520
TAFHKO
TAF
PHKO 300520Z 3006/0106 09007KT P6SM SCT025 BKN050
      TEMPO 3006/3008 VRB06G15KT -SHRA BKN020 BKN035
     FM301900 21010KT P6SM FEW060
     FM010300 VRB06KT P6SM FEW030 BKN050=

USA.gov is the U.S. government's official web portal to all federal, state and local government web resources and services.